地図

経路データ

SID SEASON NUMBER BASIN SUBBASIN NAME ISO_TIME NATURE LAT LON WMO_WIND WMO_PRES WMO_AGENCY TRACK_TYPE DIST2LAND LANDFALL IFLAG USA_AGENCY USA_ATCF_ID USA_LAT USA_LON USA_RECORD USA_STATUS USA_WIND USA_PRES USA_SSHS USA_R34_NE USA_R34_SE USA_R34_SW USA_R34_NW USA_R50_NE USA_R50_SE USA_R50_SW USA_R50_NW USA_R64_NE USA_R64_SE USA_R64_SW USA_R64_NW USA_POCI USA_ROCI USA_RMW USA_EYE TOKYO_LAT TOKYO_LON TOKYO_GRADE TOKYO_WIND TOKYO_PRES TOKYO_R50_DIR TOKYO_R50_LONG TOKYO_R50_SHORT TOKYO_R30_DIR TOKYO_R30_LONG TOKYO_R30_SHORT TOKYO_LAND CMA_LAT CMA_LON CMA_CAT CMA_WIND CMA_PRES HKO_LAT HKO_LON HKO_CAT HKO_WIND HKO_PRES NEWDELHI_LAT NEWDELHI_LON NEWDELHI_GRADE NEWDELHI_WIND NEWDELHI_PRES NEWDELHI_CI NEWDELHI_DP NEWDELHI_POCI REUNION_LAT REUNION_LON REUNION_TYPE REUNION_WIND REUNION_PRES REUNION_TNUM REUNION_CI REUNION_RMW REUNION_R34_NE REUNION_R34_SE REUNION_R34_SW REUNION_R34_NW REUNION_R50_NE REUNION_R50_SE REUNION_R50_SW REUNION_R50_NW REUNION_R64_NE REUNION_R64_SE REUNION_R64_SW REUNION_R64_NW BOM_LAT BOM_LON BOM_TYPE BOM_WIND BOM_PRES BOM_TNUM BOM_CI BOM_RMW BOM_R34_NE BOM_R34_SE BOM_R34_SW BOM_R34_NW BOM_R50_NE BOM_R50_SE BOM_R50_SW BOM_R50_NW BOM_R64_NE BOM_R64_SE BOM_R64_SW BOM_R64_NW BOM_ROCI BOM_POCI BOM_EYE BOM_POS_METHOD BOM_PRES_METHOD NADI_LAT NADI_LON NADI_CAT NADI_WIND NADI_PRES WELLINGTON_LAT WELLINGTON_LON WELLINGTON_WIND WELLINGTON_PRES DS824_LAT DS824_LON DS824_STAGE DS824_WIND DS824_PRES TD9636_LAT TD9636_LON TD9636_STAGE TD9636_WIND TD9636_PRES TD9635_LAT TD9635_LON TD9635_WIND TD9635_PRES TD9635_ROCI NEUMANN_LAT NEUMANN_LON NEUMANN_CLASS NEUMANN_WIND NEUMANN_PRES MLC_LAT MLC_LON MLC_CLASS MLC_WIND MLC_PRES USA_GUST BOM_GUST BOM_GUST_PER REUNION_GUST REUNION_GUST_PER USA_SEAHGT USA_SEARAD_NE USA_SEARAD_SE USA_SEARAD_SW USA_SEARAD_NW STORM_SPEED STORM_DIR
1987006S06076 1987 2 SI MM NOT_NAMED 1987-01-06 06:00:00 TS -5.70000 75.9000 main 1399 1399 O_________O_O_ jtwc_sh SH061987 -5.70000 75.9000 25 -1 -5.70000 75.9000 1 25 -5.70000 75.9000 TC 25 3 161
1987006S06076 1987 2 SI MM NOT_NAMED 1987-01-06 09:00:00 TS -5.84976 75.9505 main 1405 1405 P_________P_P_ SH061987 -5.84750 75.9525 27 -1 -5.85426 75.9466 1 27 -5.84750 75.9525 TC 27 3 163
1987006S06076 1987 2 SI MM NOT_NAMED 1987-01-06 12:00:00 TS -6.00000 76.0000 main 1427 1427 O_________O_O_ jtwc_sh SH061987 -6.00000 76.0000 30 -1 -6.00000 76.0000 1 30 -6.00000 76.0000 TC 30 3 162
1987006S06076 1987 2 SI MM NOT_NAMED 1987-01-06 15:00:00 TS -6.14880 76.0501 main 1433 1433 P_________P_P_ SH061987 -6.15750 76.0425 30 -1 -6.13139 76.0652 1 30 -6.15750 76.0425 TC 30 3 158
1987006S06076 1987 2 SI MM NOT_NAMED 1987-01-06 18:00:00 TS -6.28447 76.1133 main 1455 1451 O_________P_O_ jtwc_sh SH061987 -6.30000 76.1000 30 -1 -6.25341 76.1398 1 30 -6.30000 76.1000 TC 30 3 147
1987006S06076 1987 2 SI MM NOT_NAMED 1987-01-06 21:00:00 TS -6.39124 76.2065 main 1462 1458 P_________P_P_ SH061987 -6.40001 76.2000 30 -1 -6.37372 76.2195 1 30 -6.40001 76.2000 TC 30 3 139
1987006S06076 1987 2 SI MM NOT_NAMED 1987-01-07 00:00:00 TS -6.50000 76.3000 main 1469 1469 O_________O_O_ jtwc_sh SH061987 -6.50000 76.3000 30 -1 -6.50000 76.3000 1 30 -6.50000 76.3000 TC 30 3 147
1987006S06076 1987 2 SI MM NOT_NAMED 1987-01-07 03:00:00 TS -6.63854 76.3637 main 1476 1476 P_________P_P_ SH061987 -6.64249 76.3500 32 -1 -6.63063 76.3912 1 31 -6.64249 76.3500 TC 32 3 156
1987006S06076 1987 2 SI MM NOT_NAMED 1987-01-07 06:00:00 TS -6.79000 76.4267 main 1497 1494 O_________P_O_ jtwc_sh SH061987 -6.80000 76.4000 35 0 -6.77001 76.4800 1 32 -6.80000 76.4000 TC 35 3 152
1987006S06076 1987 2 SI MM NOT_NAMED 1987-01-07 09:00:00 TS -6.93647 76.5229 main 1504 1504 P_________P_P_ SH061987 -6.94251 76.5075 35 0 -6.92438 76.5537 1 33 -6.94251 76.5075 TC 35 4 151
1987006S06076 1987 2 SI MM NOT_NAMED 1987-01-07 12:00:00 TS -7.10000 76.6000 main 1522 1522 O_________O_O_ jtwc_sh SH061987 -7.10000 76.6000 35 0 -7.10000 76.6000 2 35 -7.10000 76.6000 TC 35 4 169
1987006S06076 1987 2 SI MM NOT_NAMED 1987-01-07 15:00:00 TS -7.28435 76.5961 main 1544 1544 P_________P_P_ SH061987 -7.28500 76.6225 35 0 -7.28305 76.5432 2 35 -7.28500 76.6225 TC 35 4 184
1987006S06076 1987 2 SI MM NOT_NAMED 1987-01-07 18:00:00 TS -7.49662 76.5560 main 1565 1565 O_________P_O_ jtwc_sh SH061987 -7.50000 76.6000 35 0 -7.48986 76.4681 2 35 -7.50000 76.6000 TC 35 5 194
1987006S06076 1987 2 SI MM NOT_NAMED 1987-01-07 21:00:00 TS -7.72723 76.4864 main 1590 1590 P_________P_P_ SH061987 -7.72749 76.5126 35 0 -7.72672 76.4339 2 35 -7.72749 76.5126 TC 35 5 187
1987006S06076 1987 2 SI MM NOT_NAMED 1987-01-08 00:00:00 TS -8.00000 76.5000 main 1622 1622 O_________O_O_ jtwc_sh SH061987 -8.00000 76.5000 35 0 -8.00000 76.5000 2 35 -8.00000 76.5000 TC 35 6 160
1987006S06076 1987 2 SI MM NOT_NAMED 1987-01-08 03:00:00 TS -8.32671 76.7000 main 1649 1649 P_________P_P_ SH061987 -8.33496 76.6750 35 0 -8.31023 76.7500 2 35 -8.33496 76.6750 TC 35 9 142
1987006S06076 1987 2 SI MM NOT_NAMED 1987-01-08 06:00:00 TS -8.68512 77.0340 main 1684 1681 O_________P_O_ jtwc_sh SH061987 -8.70000 77.0000 35 0 -8.65536 77.1021 2 35 -8.70000 77.0000 TC 35 10 134
1987006S06076 1987 2 SI MM NOT_NAMED 1987-01-08 09:00:00 TS -9.04096 77.4527 main 1704 1704 P_________P_P_ SH061987 -9.05006 77.4275 35 0 -9.02276 77.5032 2 35 -9.05006 77.4275 TC 35 11 130
1987006S06076 1987 2 SI MM NOT_NAMED 1987-01-08 12:00:00 TS -9.40000 77.9000 main 1740 1740 O_________O_O_ jtwc_sh SH061987 -9.40000 77.9000 35 0 -9.40000 77.9000 2 35 -9.40000 77.9000 TC 35 11 131
1987006S06076 1987 2 SI MM NOT_NAMED 1987-01-08 15:00:00 TS -9.76718 78.3045 main 1777 1776 P_________P_P_ SH061987 -9.74251 78.3375 35 0 -9.81651 78.2385 2 35 -9.74251 78.3375 TC 35 11 135
1987006S06076 1987 2 SI MM NOT_NAMED 1987-01-08 18:00:00 TS -10.1442 78.6532 main 1805 1805 O_________P_O_ jtwc_sh SH061987 -10.1000 78.7000 35 0 -10.2325 78.5596 2 35 -10.1000 78.7000 TC 35 10 143
1987006S06076 1987 2 SI MM NOT_NAMED 1987-01-08 21:00:00 TS -10.5557 78.9087 main 1858 1857 P_________P_P_ SH061987 -10.5299 78.9375 35 0 -10.6072 78.8509 2 35 -10.5299 78.9375 TC 35 9 150
1987006S06076 1987 2 SI MM NOT_NAMED 1987-01-09 00:00:00 TS -10.9000 79.1000 main 1889 1889 O_________O_O_ jtwc_sh SH061987 -10.9000 79.1000 35 0 -10.9000 79.1000 2 35 -10.9000 79.1000 TC 35 7 146
1987006S06076 1987 2 SI MM NOT_NAMED 1987-01-09 03:00:00 TS -11.0977 79.2763 main 1910 1910 P_________P_P_ SH061987 -11.1100 79.2576 35 0 -11.0733 79.3138 2 35 -11.1100 79.2576 TC 35 4 132
1987006S06076 1987 2 SI MM NOT_NAMED 1987-01-09 06:00:00 TS -11.1874 79.4276 main 1920 1919 O_________P_O_ jtwc_sh SH061987 -11.2000 79.4000 35 0 -11.1623 79.4829 2 35 -11.2000 79.4000 TC 35 3 112
1987006S06076 1987 2 SI MM NOT_NAMED 1987-01-09 09:00:00 TS -11.2184 79.5852 main 1919 1918 P_________P_P_ SH061987 -11.2300 79.5725 35 0 -11.1952 79.6106 2 35 -11.2300 79.5725 TC 35 3 93
1987006S06076 1987 2 SI MM NOT_NAMED 1987-01-09 12:00:00 TS -11.2000 79.7000 main 1918 1918 O_________O_O_ jtwc_sh SH061987 -11.2000 79.7000 35 0 -11.2000 79.7000 2 35 -11.2000 79.7000 TC 35 1 70
1987006S06076 1987 2 SI MM NOT_NAMED 1987-01-09 15:00:00 TS -11.1675 79.7276 main 1918 1907 P_________P_P_ SH061987 -11.1425 79.7150 35 0 -11.2174 79.7529 2 35 -11.1425 79.7150 TC 35 1 0
1987006S06076 1987 2 SI MM NOT_NAMED 1987-01-09 18:00:00 TS -11.1383 79.7242 main 1907 1907 O_________P_O_ jtwc_sh SH061987 -11.1000 79.7000 35 0 -11.2149 79.7726 2 35 -11.1000 79.7000 TC 35 0 0
1987006S06076 1987 2 SI MM NOT_NAMED 1987-01-09 21:00:00 TS -11.1583 79.7553 main 1918 1918 P_________P_P_ SH061987 -11.1350 79.7425 35 0 -11.2050 79.7810 2 35 -11.1350 79.7425 TC 35 1 130
1987006S06076 1987 2 SI MM NOT_NAMED 1987-01-10 00:00:00 TS -11.2000 79.8000 main 1918 1917 O_________O_O_ jtwc_sh SH061987 -11.2000 79.8000 35 0 -11.2000 79.8000 2 35 -11.2000 79.8000 TC 35 1 129
1987006S06076 1987 2 SI MM NOT_NAMED 1987-01-10 03:00:00 TS -11.2443 79.8594 main 1917 1917 P_________P_P_ SH061987 -11.2575 79.8425 35 0 -11.2178 79.8931 2 36 -11.2575 79.8425 TC 35 2 122
1987006S06076 1987 2 SI MM NOT_NAMED 1987-01-10 06:00:00 TS -11.2808 79.9316 main 1928 1928 O_________P_O_ jtwc_sh SH061987 -11.3000 79.9000 35 0 -11.2425 79.9950 2 37 -11.3000 79.9000 TC 35 2 107
1987006S06076 1987 2 SI MM NOT_NAMED 1987-01-10 09:00:00 TS -11.2953 80.0298 main 1928 1927 P_________P_P_ SH061987 -11.3075 80.0075 37 0 -11.2709 80.0743 2 38 -11.3075 80.0075 TC 37 2 97
1987006S06076 1987 2 SI MM NOT_NAMED 1987-01-10 12:00:00 TS -11.3000 80.1000 main 1927 1927 O_________O_O_ jtwc_sh SH061987 -11.3000 80.1000 40 0 -11.3000 80.1000 2 40 -11.3000 80.1000 TC 40 1 98
1987006S06076 1987 2 SI MM NOT_NAMED 1987-01-10 15:00:00 TS -11.3060 80.1125 main 1927 1927 P_________P_P_ SH061987 -11.2925 80.1525 42 0 -11.3331 80.0325 2 41 -11.2925 80.1525 TC 42 1 247
1987006S06076 1987 2 SI MM NOT_NAMED 1987-01-10 18:00:00 TS -11.3217 80.0367 main 1928 1928 O_________P_O_ jtwc_sh SH061987 -11.3000 80.1000 45 0 -11.3650 79.9101 2 42 -11.3000 80.1000 TC 45 3 258
1987006S06076 1987 2 SI MM NOT_NAMED 1987-01-10 21:00:00 TS -11.3632 79.8392 main 1940 1940 P_________P_P_ SH061987 -11.3501 79.8800 45 0 -11.3894 79.7575 2 43 -11.3501 79.8800 TC 45 4 260
1987006S06076 1987 2 SI MM NOT_NAMED 1987-01-11 00:00:00 TS -11.4000 79.6000 main 1941 1941 O_________O_O_ jtwc_sh SH061987 -11.4000 79.6000 45 0 -11.4000 79.6000 2 45 -11.4000 79.6000 TC 45 4 264
1987006S06076 1987 2 SI MM NOT_NAMED 1987-01-11 03:00:00 TS -11.4065 79.3955 main 1942 1942 P_________P_P_ SH061987 -11.4150 79.3700 45 0 -11.3894 79.4465 2 45 -11.4150 79.3700 TC 45 4 272
1987006S06076 1987 2 SI MM NOT_NAMED 1987-01-11 06:00:00 TS -11.3883 79.2325 main 1944 1944 O_________P_O_ jtwc_sh SH061987 -11.4000 79.2000 45 0 -11.3650 79.2974 2 45 -11.4000 79.2000 TC 45 3 282
1987006S06076 1987 2 SI MM NOT_NAMED 1987-01-11 09:00:00 TS -11.3494 79.1282 main 1934 1934 P_________P_P_ SH061987 -11.3575 79.1050 45 0 -11.3332 79.1746 2 45 -11.3575 79.1050 TC 45 2 304
1987006S06076 1987 2 SI MM NOT_NAMED 1987-01-11 12:00:00 TS -11.3000 79.1000 main 1934 1933 O_________O_O_ jtwc_sh SH061987 -11.3000 79.1000 45 0 -11.3000 79.1000 2 45 -11.3000 79.1000 TC 45 1 19
1987006S06076 1987 2 SI MM NOT_NAMED 1987-01-11 15:00:00 TS -11.2506 79.1684 main 1933 1921 P_________P_P_ SH061987 -11.2425 79.1925 45 0 -11.2669 79.1200 2 45 -11.2425 79.1925 TC 45 2 61
1987006S06076 1987 2 SI MM NOT_NAMED 1987-01-11 18:00:00 TS -11.2117 79.2617 main 1921 1921 O_________P_O_ jtwc_sh SH061987 -11.2000 79.3000 45 0 -11.2350 79.1850 2 45 -11.2000 79.3000 TC 45 1 67
1987006S06076 1987 2 SI MM NOT_NAMED 1987-01-11 21:00:00 TS -11.1935 79.3058 main 1921 1921 P_________P_P_ SH061987 -11.1850 79.3300 45 0 -11.2106 79.2575 2 45 -11.1850 79.3300 TC 45 0 73
1987006S06076 1987 2 SI MM NOT_NAMED 1987-01-12 00:00:00 TS -11.2000 79.3000 main 1921 1921 O_________O_O_ jtwc_sh SH061987 -11.2000 79.3000 45 0 -11.2000 79.3000 2 45 -11.2000 79.3000 TC 45 1 238
1987006S06076 1987 2 SI MM NOT_NAMED 1987-01-12 03:00:00 TS -11.2358 79.2330 main 1922 1922 P_________P_P_ SH061987 -11.2500 79.2075 45 0 -11.2075 79.2841 2 42 -11.2500 79.2075 TC 45 2 244
1987006S06076 1987 2 SI MM NOT_NAMED 1987-01-12 06:00:00 TS -11.2767 79.1392 main 1934 1934 O_________P_O_ jtwc_sh SH061987 -11.3000 79.1000 45 0 -11.2300 79.2175 2 40 -11.3000 79.1000 TC 45 2 250
1987006S06076 1987 2 SI MM NOT_NAMED 1987-01-12 09:00:00 TS -11.2958 79.0624 main 1934 1934 P_________P_P_ SH061987 -11.3125 79.0350 40 0 -11.2625 79.1172 2 37 -11.3125 79.0350 TC 40 1 260
1987006S06076 1987 2 SI MM NOT_NAMED 1987-01-12 12:00:00 TS -11.3000 79.0000 main 1935 O_________O_O_ jtwc_sh SH061987 -11.3000 79.0000 35 0 -11.3000 79.0000 2 35 -11.3000 79.0000 TC 35 1 266

IBTrACS Databaseについて

本データベースは、米国NOAAが公開する1842年以降の世界の熱帯低気圧のベストトラックデータアーカイブInternational Best Track Archive for Climate Stewardship (IBTrACS)を、ウェブで閲覧しやすい形式に変換したものです。

最終更新日:2021-11-26